createdAt,value
2023-06-02T00:01:44.302Z,98255.22
2023-06-02T00:04:46.812Z,98261.69
2023-06-02T00:07:49.570Z,98256.78
2023-06-02T00:10:50.920Z,98259.63
2023-06-02T00:13:52.390Z,98257.19
2023-06-02T00:16:56.346Z,98252.25
2023-06-02T00:19:57.976Z,98263.66
2023-06-02T00:22:59.420Z,98270.25
2023-06-02T00:26:01.507Z,98265.03
2023-06-02T00:29:03.601Z,98272.34
2023-06-02T00:32:05.464Z,98262.97
2023-06-02T00:35:06.985Z,98257.47
2023-06-02T00:38:08.343Z,98254.84
2023-06-02T00:41:09.853Z,98259.00
2023-06-02T00:44:11.166Z,98267.06
2023-06-02T00:47:12.528Z,98260.63
2023-06-02T00:50:13.936Z,98261.50
2023-06-02T00:53:16.073Z,98261.63
2023-06-02T00:56:18.353Z,98263.13
2023-06-02T00:59:20.551Z,98273.66
2023-06-02T01:02:22.227Z,98269.53
2023-06-02T01:05:23.572Z,98268.25
2023-06-02T01:08:25.831Z,98272.03
2023-06-02T01:11:27.288Z,98269.56
2023-06-02T01:14:28.909Z,98275.50
2023-06-02T01:17:36.586Z,98267.47
2023-06-02T01:20:52.935Z,98272.06
2023-06-02T01:23:54.935Z,98277.31
2023-06-02T01:26:56.561Z,98263.16
2023-06-02T01:29:57.967Z,98276.00
2023-06-02T01:33:04.808Z,98279.78
2023-06-02T01:36:07.828Z,98278.16
2023-06-02T01:39:10.467Z,98274.19
2023-06-02T01:42:11.883Z,98265.13
2023-06-02T01:45:14.236Z,98265.97
2023-06-02T01:48:15.644Z,98262.66
2023-06-02T01:51:17.008Z,98256.91
2023-06-02T01:54:18.381Z,98253.25
2023-06-02T01:57:19.709Z,98268.34
2023-06-02T02:00:21.156Z,98271.38
2023-06-02T02:03:23.717Z,98267.63
2023-06-02T02:06:31.470Z,98270.41
2023-06-02T02:09:32.857Z,98269.59
2023-06-02T02:12:34.778Z,98273.69
2023-06-02T02:15:36.168Z,98269.41
2023-06-02T02:18:37.477Z,98271.56
2023-06-02T02:21:39.093Z,98271.34
2023-06-02T02:24:40.667Z,98280.81
2023-06-02T02:27:42.075Z,98280.03
2023-06-02T02:30:43.452Z,98275.16
2023-06-02T02:33:44.853Z,98278.94
2023-06-02T02:36:46.249Z,98289.34
2023-06-02T02:39:47.673Z,98285.50
2023-06-02T02:42:48.994Z,98291.53
2023-06-02T02:45:50.356Z,98296.13
2023-06-02T02:48:51.869Z,98296.13
2023-06-02T02:51:53.232Z,98290.75
2023-06-02T02:54:54.610Z,98287.75
2023-06-02T02:57:55.932Z,98296.09
2023-06-02T03:00:57.309Z,98284.97
2023-06-02T03:03:59.305Z,98277.44
2023-06-02T03:07:02.239Z,98292.50
2023-06-02T03:10:03.812Z,98284.03
2023-06-02T03:13:05.162Z,98288.69
2023-06-02T03:16:06.759Z,98289.13
2023-06-02T03:19:17.212Z,98287.56
2023-06-02T03:22:18.581Z,98292.81
2023-06-02T03:25:22.747Z,98292.28
2023-06-02T03:28:24.070Z,98292.44
2023-06-02T03:31:26.991Z,98301.28
2023-06-02T03:34:30.947Z,98304.78
2023-06-02T03:37:32.322Z,98299.84
2023-06-02T03:40:34.605Z,98295.53
2023-06-02T03:43:36.015Z,98290.94
2023-06-02T03:46:37.392Z,98303.28
2023-06-02T03:49:38.801Z,98303.69
2023-06-02T03:52:40.224Z,98300.06
2023-06-02T03:55:41.625Z,98305.84
2023-06-02T03:58:43.024Z,98304.50
2023-06-02T04:01:44.456Z,98310.34
2023-06-02T04:04:45.811Z,98308.00
2023-06-02T04:07:47.712Z,98314.16
2023-06-02T04:10:49.127Z,98316.25
2023-06-02T04:13:50.869Z,98308.41
2023-06-02T04:16:52.311Z,98312.66
2023-06-02T04:19:54.061Z,98318.00
2023-06-02T04:22:55.467Z,98318.75
2023-06-02T04:25:56.810Z,98312.28
2023-06-02T04:28:58.183Z,98314.03
2023-06-02T04:31:59.827Z,98319.19
2023-06-02T04:35:01.510Z,98311.19
2023-06-02T04:38:04.198Z,98322.03
2023-06-02T04:41:09.785Z,98319.19
2023-06-02T04:44:11.186Z,98317.41
2023-06-02T04:47:12.617Z,98323.53
2023-06-02T04:50:17.432Z,98325.72
2023-06-02T04:53:18.821Z,98331.19
2023-06-02T04:56:20.154Z,98340.09
2023-06-02T04:59:22.601Z,98339.59
2023-06-02T05:02:23.939Z,98337.22
2023-06-02T05:05:25.324Z,98341.34
2023-06-02T05:08:26.657Z,98339.56
2023-06-02T05:11:28.015Z,98341.06
2023-06-02T05:14:29.359Z,98336.97
2023-06-02T05:17:31.718Z,98343.28
2023-06-02T05:20:33.078Z,98339.41
2023-06-02T05:23:34.445Z,98346.97
2023-06-02T05:26:35.864Z,98348.13
2023-06-02T05:29:37.197Z,98346.50
2023-06-02T05:32:38.535Z,98347.31
2023-06-02T05:35:39.898Z,98338.88
2023-06-02T05:38:42.925Z,98350.56
2023-06-02T05:41:44.405Z,98352.78
2023-06-02T05:44:45.822Z,98345.47
2023-06-02T05:47:48.701Z,98351.00
2023-06-02T05:50:50.188Z,98350.56
2023-06-02T05:53:51.612Z,98345.19
2023-06-02T05:56:53.078Z,98350.41
2023-06-02T05:59:54.447Z,98351.44
2023-06-02T06:02:56.212Z,98349.59
2023-06-02T06:05:57.635Z,98353.31
2023-06-02T06:08:59.093Z,98352.34
2023-06-02T06:12:00.516Z,98361.22
2023-06-02T06:15:01.912Z,98349.19
2023-06-02T06:18:03.294Z,98358.16
2023-06-02T06:21:04.682Z,98359.94
2023-06-02T06:24:06.268Z,98371.13
2023-06-02T06:27:09.091Z,98364.22
2023-06-02T06:30:12.514Z,98364.31
2023-06-02T06:33:13.825Z,98364.19
2023-06-02T06:36:15.217Z,98372.41
2023-06-02T06:39:16.554Z,98372.25
2023-06-02T06:42:17.882Z,98366.88
2023-06-02T06:45:19.196Z,98376.53
2023-06-02T06:48:20.744Z,98373.53
2023-06-02T06:51:22.739Z,98375.84
2023-06-02T06:54:24.088Z,98378.59
2023-06-02T06:57:25.431Z,98379.28
2023-06-02T07:00:26.930Z,98390.88
2023-06-02T07:03:28.385Z,98389.94
2023-06-02T07:06:29.777Z,98387.97
2023-06-02T07:09:31.137Z,98388.78
2023-06-02T07:12:32.495Z,98389.88
2023-06-02T07:15:34.165Z,98387.16
2023-06-02T07:18:35.807Z,98393.72
2023-06-02T07:21:37.760Z,98396.03
2023-06-02T07:24:39.253Z,98387.00
2023-06-02T07:27:40.664Z,98398.38
2023-06-02T07:30:49.540Z,98401.25
2023-06-02T07:34:03.471Z,98394.06
2023-06-02T07:37:05.814Z,98402.16
2023-06-02T07:40:09.254Z,98399.38
2023-06-02T07:43:10.610Z,98394.00
2023-06-02T07:46:12.089Z,98395.41
2023-06-02T07:49:13.761Z,98396.75
2023-06-02T07:52:16.293Z,98395.41
2023-06-02T07:55:18.727Z,98391.22
2023-06-02T07:58:20.109Z,98395.25
2023-06-02T08:01:21.430Z,98389.94
2023-06-02T08:04:27.385Z,98401.66
2023-06-02T08:07:28.900Z,98398.25
2023-06-02T08:10:30.295Z,98402.50
2023-06-02T08:13:31.735Z,98394.94
2023-06-02T08:16:41.479Z,98397.00
2023-06-02T08:19:54.257Z,98391.53
2023-06-02T08:22:57.041Z,98399.75
2023-06-02T08:25:59.951Z,98388.44
2023-06-02T08:29:01.404Z,98387.53
2023-06-02T08:32:02.825Z,98375.69
2023-06-02T08:35:04.508Z,98384.06
2023-06-02T08:38:08.219Z,98385.56
2023-06-02T08:41:11.669Z,98380.09
2023-06-02T08:44:13.925Z,98384.16
2023-06-02T08:47:15.446Z,98386.09
2023-06-02T08:50:17.127Z,98380.31
2023-06-02T08:53:18.946Z,98380.94
2023-06-02T08:56:20.504Z,98374.75
2023-06-02T08:59:22.304Z,98373.56
2023-06-02T09:02:23.689Z,98382.59
2023-06-02T09:05:25.435Z,98375.31
2023-06-02T09:08:30.512Z,98368.78
2023-06-02T09:11:32.668Z,98374.84
2023-06-02T09:14:34.027Z,98376.50
2023-06-02T09:17:35.432Z,98376.91
2023-06-02T09:20:39.523Z,98370.84
2023-06-02T09:23:42.858Z,98370.84
2023-06-02T09:26:51.410Z,98377.25
2023-06-02T09:29:59.204Z,98367.16
2023-06-02T09:33:06.099Z,98369.34
2023-06-02T09:36:22.196Z,98373.13
2023-06-02T09:39:34.128Z,98368.50
2023-06-02T09:42:43.557Z,98375.16
2023-06-02T09:45:49.241Z,98372.38
2023-06-02T09:48:58.160Z,98383.88
2023-06-02T09:52:19.920Z,98371.34
2023-06-02T09:55:21.465Z,98369.16
2023-06-02T09:58:22.823Z,98368.41
2023-06-02T10:01:24.186Z,98371.28
2023-06-02T10:04:25.588Z,98361.16
2023-06-02T10:07:49.380Z,98362.50
2023-06-02T10:10:59.798Z,98362.50
2023-06-02T10:14:01.123Z,98356.25
2023-06-02T10:17:10.978Z,98366.63
2023-06-02T10:20:21.465Z,98368.78
2023-06-02T10:23:45.726Z,98361.53
2023-06-02T10:26:56.333Z,98361.53
2023-06-02T10:29:57.764Z,98366.34
2023-06-02T10:32:59.176Z,98365.66
2023-06-02T10:36:01.542Z,98357.09
2023-06-02T10:39:22.976Z,98360.41
2023-06-02T10:42:25.190Z,98358.09
2023-06-02T10:45:32.641Z,98361.41
2023-06-02T10:48:40.774Z,98363.72
2023-06-02T10:52:06.442Z,98357.28
2023-06-02T10:55:07.811Z,98363.97
2023-06-02T10:58:12.334Z,98363.31
2023-06-02T11:01:14.657Z,98359.38
2023-06-02T11:04:25.107Z,98362.31
2023-06-02T11:07:27.787Z,98354.28
2023-06-02T11:10:42.645Z,98355.28
2023-06-02T11:14:00.260Z,98355.16
2023-06-02T11:17:20.708Z,98361.25
2023-06-02T11:20:32.234Z,98358.66
2023-06-02T11:23:33.615Z,98366.84
2023-06-02T11:26:47.319Z,98355.94
2023-06-02T11:30:03.659Z,98354.97
2023-06-02T11:33:05.391Z,98358.16
2023-06-02T11:36:09.302Z,98357.97
2023-06-02T11:39:10.676Z,98356.59
2023-06-02T11:42:11.991Z,98352.06
2023-06-02T11:45:40.056Z,98353.75
2023-06-02T11:48:41.829Z,98344.84
2023-06-02T11:51:43.317Z,98345.84
2023-06-02T11:54:51.477Z,98352.66
2023-06-02T11:57:52.958Z,98354.38
2023-06-02T12:01:05.421Z,98342.22
2023-06-02T12:04:07.624Z,98344.53
2023-06-02T12:07:09.455Z,98349.50
2023-06-02T12:10:15.532Z,98352.78
2023-06-02T12:13:30.065Z,98343.72
2023-06-02T12:16:31.829Z,98350.31
2023-06-02T12:19:33.280Z,98343.50
2023-06-02T12:22:34.633Z,98340.34
2023-06-02T12:25:36.378Z,98350.75
2023-06-02T12:28:39.021Z,98342.25
2023-06-02T12:31:40.699Z,98338.81
2023-06-02T12:34:43.222Z,98344.16
2023-06-02T12:37:44.718Z,98347.28
2023-06-02T12:40:46.113Z,98346.59
2023-06-02T12:43:47.585Z,98340.66
2023-06-02T12:46:49.356Z,98349.56
2023-06-02T12:49:53.494Z,98347.19
2023-06-02T12:52:54.915Z,98348.66
2023-06-02T12:55:56.362Z,98348.75
2023-06-02T12:58:57.863Z,98342.47
2023-06-02T13:01:59.344Z,98339.63
2023-06-02T13:05:00.748Z,98342.69
2023-06-02T13:08:05.854Z,98338.63
2023-06-02T13:11:07.424Z,98344.19
2023-06-02T13:14:08.866Z,98347.50
2023-06-02T13:17:10.307Z,98339.31
2023-06-02T13:20:12.060Z,98336.22
2023-06-02T13:23:13.519Z,98341.19
2023-06-02T13:26:15.246Z,98339.56
2023-06-02T13:29:16.862Z,98339.56
2023-06-02T13:32:18.278Z,98334.72
2023-06-02T13:35:20.699Z,98328.78
2023-06-02T13:38:23.095Z,98328.91
2023-06-02T13:41:24.413Z,98336.00
2023-06-02T13:44:25.998Z,98337.38
2023-06-02T13:47:27.502Z,98340.41
2023-06-02T13:50:28.974Z,98334.81
2023-06-02T13:53:30.508Z,98333.84
2023-06-02T13:56:32.202Z,98328.78
2023-06-02T13:59:33.613Z,98331.47
2023-06-02T14:02:35.120Z,98328.28
2023-06-02T14:05:36.646Z,98330.00
2023-06-02T14:08:38.035Z,98323.91
2023-06-02T14:11:39.777Z,98320.97
2023-06-02T14:14:41.309Z,98318.78
2023-06-02T14:17:42.678Z,98319.41
2023-06-02T14:20:44.164Z,98326.34
2023-06-02T14:23:45.636Z,98328.00
2023-06-02T14:26:46.998Z,98328.38
2023-06-02T14:29:48.331Z,98329.00
2023-06-02T14:32:49.757Z,98324.19
2023-06-02T14:35:51.194Z,98327.47
2023-06-02T14:38:52.557Z,98332.66
2023-06-02T14:41:55.847Z,98328.16
2023-06-02T14:44:57.207Z,98326.41
2023-06-02T14:47:58.660Z,98321.94
2023-06-02T14:51:00.445Z,98325.50
2023-06-02T14:54:01.887Z,98323.22
2023-06-02T14:57:06.143Z,98329.38
2023-06-02T15:00:08.106Z,98323.00
2023-06-02T15:03:09.641Z,98321.94
2023-06-02T15:06:12.853Z,98325.13
2023-06-02T15:09:14.284Z,98313.13
2023-06-02T15:12:15.775Z,98312.31
2023-06-02T15:15:17.112Z,98321.47
2023-06-02T15:18:18.534Z,98315.34
2023-06-02T15:21:20.175Z,98321.78
2023-06-02T15:24:23.122Z,98319.28
2023-06-02T15:27:26.606Z,98322.19
2023-06-02T15:30:29.951Z,98318.66
2023-06-02T15:33:32.361Z,98312.69
2023-06-02T15:36:35.528Z,98316.94
2023-06-02T15:39:36.880Z,98320.03
2023-06-02T15:42:39.622Z,98325.38
2023-06-02T15:45:41.155Z,98310.50
2023-06-02T15:48:45.857Z,98309.69
2023-06-02T15:51:47.209Z,98318.59
2023-06-02T15:54:49.080Z,98320.59
2023-06-02T15:57:54.829Z,98315.84
2023-06-02T16:00:57.008Z,98320.06
2023-06-02T16:03:58.419Z,98323.56
2023-06-02T16:06:59.817Z,98330.22
2023-06-02T16:10:01.204Z,98319.94
2023-06-02T16:13:02.646Z,98322.97
2023-06-02T16:16:04.216Z,98320.56
2023-06-02T16:19:05.921Z,98323.69
2023-06-02T16:22:07.421Z,98320.03
2023-06-02T16:25:09.332Z,98322.25
2023-06-02T16:28:10.833Z,98322.34
2023-06-02T16:31:12.215Z,98323.94
2023-06-02T16:34:13.674Z,98326.31
2023-06-02T16:37:19.396Z,98322.28
2023-06-02T16:40:20.875Z,98323.94
2023-06-02T16:43:22.633Z,98321.22
2023-06-02T16:46:24.660Z,98327.91
2023-06-02T16:49:26.016Z,98338.19
2023-06-02T16:52:27.977Z,98329.69
2023-06-02T16:55:29.328Z,98333.47
2023-06-02T16:58:30.734Z,98324.19
2023-06-02T17:01:33.235Z,98326.84
2023-06-02T17:04:35.807Z,98330.97
2023-06-02T17:07:37.124Z,98326.16
2023-06-02T17:10:38.689Z,98326.97
2023-06-02T17:13:40.028Z,98324.13
2023-06-02T17:16:41.448Z,98324.88
2023-06-02T17:19:43.088Z,98331.78
2023-06-02T17:22:44.435Z,98325.69
2023-06-02T17:25:45.884Z,98327.13
2023-06-02T17:28:47.723Z,98328.78
2023-06-02T17:31:49.205Z,98329.78
2023-06-02T17:34:51.309Z,98332.19
2023-06-02T17:37:53.071Z,98334.09
2023-06-02T17:40:54.409Z,98338.53
2023-06-02T17:43:55.769Z,98334.91
2023-06-02T17:46:57.436Z,98333.41
2023-06-02T17:49:58.909Z,98332.69
2023-06-02T17:53:00.276Z,98333.69
2023-06-02T17:56:01.802Z,98341.97
2023-06-02T17:59:05.235Z,98343.53
2023-06-02T18:02:08.303Z,98346.94
2023-06-02T18:05:09.893Z,98346.06
2023-06-02T18:08:11.238Z,98357.66
2023-06-02T18:11:12.569Z,98354.56
2023-06-02T18:14:13.927Z,98358.97
2023-06-02T18:17:15.739Z,98355.69
2023-06-02T18:20:17.101Z,98365.09
2023-06-02T18:23:19.909Z,98364.34
2023-06-02T18:26:21.257Z,98361.06
2023-06-02T18:29:22.862Z,98365.31
2023-06-02T18:32:24.338Z,98367.44
2023-06-02T18:35:26.132Z,98376.75
2023-06-02T18:38:27.459Z,98382.28
2023-06-02T18:41:30.109Z,98388.19
2023-06-02T18:44:31.463Z,98388.56
2023-06-02T18:47:33.633Z,98398.50
2023-06-02T18:50:35.325Z,98390.75
2023-06-02T18:53:37.015Z,98400.19
2023-06-02T18:56:38.350Z,98397.44
2023-06-02T18:59:39.895Z,98405.84
2023-06-02T19:02:41.418Z,98397.44
2023-06-02T19:05:42.893Z,98410.78
2023-06-02T19:08:44.240Z,98406.94
2023-06-02T19:11:46.617Z,98415.44
2023-06-02T19:14:48.595Z,98420.53
2023-06-02T19:17:51.504Z,98418.69
2023-06-02T19:20:53.000Z,98419.25
2023-06-02T19:23:54.492Z,98434.69
2023-06-02T19:26:55.843Z,98433.03
2023-06-02T19:29:57.178Z,98429.56
2023-06-02T19:32:59.149Z,98438.50
2023-06-02T19:36:00.637Z,98445.94
2023-06-02T19:39:02.125Z,98449.94
2023-06-02T19:42:03.605Z,98452.56
2023-06-02T19:45:05.843Z,98458.13
2023-06-02T19:48:07.484Z,98460.88
2023-06-02T19:51:08.939Z,98461.59
2023-06-02T19:54:10.355Z,98456.63
2023-06-02T19:57:12.122Z,98462.75
2023-06-02T20:00:13.599Z,98463.38
2023-06-02T20:03:15.132Z,98464.50
2023-06-02T20:06:18.711Z,98469.66
2023-06-02T20:09:20.081Z,98468.88
2023-06-02T20:12:22.650Z,98475.94
2023-06-02T20:15:24.228Z,98479.84
2023-06-02T20:18:25.576Z,98480.50
2023-06-02T20:21:28.194Z,98482.50
2023-06-02T20:24:29.552Z,98483.53
2023-06-02T20:27:30.883Z,98489.75
2023-06-02T20:30:32.229Z,98494.22
2023-06-02T20:33:33.560Z,98488.16
2023-06-02T20:36:34.931Z,98492.91
2023-06-02T20:39:36.286Z,98496.03
2023-06-02T20:42:37.622Z,98497.72
2023-06-02T20:45:38.965Z,98500.34
2023-06-02T20:48:40.397Z,98497.88
2023-06-02T20:51:41.792Z,98506.75
2023-06-02T20:54:43.152Z,98504.97
2023-06-02T20:57:44.484Z,98513.69
2023-06-02T21:00:45.895Z,98515.34
2023-06-02T21:03:47.258Z,98515.34
2023-06-02T21:06:48.721Z,98515.84
2023-06-02T21:09:50.061Z,98518.63
2023-06-02T21:12:53.174Z,98521.94
2023-06-02T21:15:54.501Z,98523.75
2023-06-02T21:18:57.189Z,98526.88
2023-06-02T21:21:58.514Z,98522.25
2023-06-02T21:25:01.853Z,98521.75
2023-06-02T21:28:03.240Z,98522.72
2023-06-02T21:31:04.972Z,98522.75
2023-06-02T21:34:06.478Z,98525.53
2023-06-02T21:37:08.790Z,98523.03
2023-06-02T21:40:10.342Z,98533.84
2023-06-02T21:43:11.694Z,98524.53
2023-06-02T21:46:13.932Z,98535.63
2023-06-02T21:49:15.287Z,98536.31
2023-06-02T21:52:16.605Z,98527.09
2023-06-02T21:55:17.934Z,98524.31
2023-06-02T21:58:19.299Z,98528.41
2023-06-02T22:01:21.913Z,98528.22
2023-06-02T22:04:23.524Z,98527.03
2023-06-02T22:07:24.998Z,98524.72
2023-06-02T22:10:26.347Z,98524.56
2023-06-02T22:13:28.667Z,98524.56
2023-06-02T22:16:30.141Z,98528.84
2023-06-02T22:19:31.604Z,98531.44
2023-06-02T22:22:33.353Z,98531.09
2023-06-02T22:25:34.694Z,98520.09
2023-06-02T22:28:36.026Z,98520.06
2023-06-02T22:31:37.440Z,98522.56
2023-06-02T22:34:38.788Z,98518.25
2023-06-02T22:37:40.134Z,98524.19
2023-06-02T22:40:41.458Z,98521.03
2023-06-02T22:43:42.784Z,98522.50
2023-06-02T22:46:44.213Z,98520.69
2023-06-02T22:49:45.705Z,98520.19
2023-06-02T22:52:47.054Z,98512.09
2023-06-02T22:55:48.543Z,98522.53
2023-06-02T22:58:49.939Z,98517.13
2023-06-02T23:01:51.339Z,98522.03
2023-06-02T23:04:52.883Z,98521.44
2023-06-02T23:07:54.331Z,98523.81
2023-06-02T23:10:55.658Z,98524.84
2023-06-02T23:13:57.001Z,98526.72
2023-06-02T23:16:58.511Z,98519.19
2023-06-02T23:20:00.012Z,98514.16
2023-06-02T23:23:01.359Z,98522.84
2023-06-02T23:26:02.820Z,98523.13
2023-06-02T23:29:04.557Z,98517.84
2023-06-02T23:32:06.352Z,98515.91
2023-06-02T23:35:08.028Z,98515.22
2023-06-02T23:38:09.587Z,98516.13
2023-06-02T23:41:11.394Z,98510.81
2023-06-02T23:44:12.869Z,98503.69
2023-06-02T23:47:17.770Z,98509.69
2023-06-02T23:50:19.154Z,98502.94
2023-06-02T23:53:20.625Z,98502.03
2023-06-02T23:56:22.182Z,98505.81
2023-06-02T23:59:23.908Z,98510.75
